West Palm Beach, FL (33412)

10:05 PM EDT on August 27, 2016 (GMT -0400)
Solid Waste Authority | | Change Station

Elev 60 ft 26.79 °N, 80.14 °W | Updated 10 seconds ago

Mostly Cloudy
Mostly Cloudy
81.6 °F
Feels Like 89 °F
N
6.0
Wind Variable Wind from ENE
Gusts 6.0 mph

Today
High -- | Low -- °F
--% Chance of Precip.
Yesterday
High -- | Low -- °F
Precip. -- in
Pressure 29.94 in
Visibility 10.0 miles
Clouds Few 3000 ft
Mostly Cloudy 25000 ft
Heat Index 89 °F
Dew Point 76 °F
Humidity 84%
Rainfall 0.23 in
Snow Depth Not available.
6:58 AM 7:45 PM
Waning Crescent, 19% visible
METAR KPBI 280153Z 07009KT 10SM FEW030 BKN250 29/23 A2993 RMK AO2 SLP136 T02890233
Pressure 29.94 in
Visibility 10.0 miles
Clouds Few 3000 ft
Mostly Cloudy 25000 ft
Heat Index 89 °F
Dew Point 76 °F
Humidity 84%
Rainfall 0.23 in
Snow Depth Not available.
6:58 AM 7:45 PM
Waning Crescent, 19% visible
METAR KPBI 280153Z 07009KT 10SM FEW030 BKN250 29/23 A2993 RMK AO2 SLP136 T02890233

10-Day Weather Forecast

Almanac

Astronomy

Aug. 27, 2016 Rise Set
Actual Time
Civil Twilight
Nautical Twilight
Astronomical Twilight
Moon
Length of Visible Light
Length of Day
Tomorrow will be .
, % of the Moon is Illuminated

Today's Extremes

State Highs State Lows

Community

WunderPhotos

Upload Photos

1,935,491 photos uploaded!

WunderBlog® & News

Nearby

Air Quality

  Air Quality AQ Index Pollutant
Not available.

Snow Depth

Station Depth Elevation

Earthquake Activity

City Distance Mag. Time & Date
Minimum magnitude displayed is 2.5.

Coastal Water Temperatures

Place Temperature

Stations

Nearby Weather Stations

Station Location Temp. Windchill Dew Point Humidity Wind Precip. Elev Updated Type
                   

Watches & Warnings

There are currently no watches in effect.